createdAt,value
2019-01-17T00:00:29.356Z,97849.55
2019-01-17T00:03:17.228Z,97854.84
2019-01-17T00:06:03.960Z,97861.35
2019-01-17T00:08:46.320Z,97856.48
2019-01-17T00:11:33.360Z,97861.27
2019-01-17T00:14:10.035Z,97856.61
2019-01-17T00:16:51.961Z,97850.13
2019-01-17T00:19:38.813Z,97862.80
2019-01-17T00:22:29.856Z,97856.55
2019-01-17T00:25:18.356Z,97859.33
2019-01-17T00:28:15.393Z,97868.00
2019-01-17T00:30:58.280Z,97857.00
2019-01-17T00:33:36.339Z,97869.30
2019-01-17T00:36:33.254Z,97866.96
2019-01-17T00:39:25.789Z,97858.59
2019-01-17T00:42:16.788Z,97865.00
2019-01-17T00:45:03.497Z,97858.33
2019-01-17T00:47:50.441Z,97863.77
2019-01-17T00:50:26.845Z,97855.95
2019-01-17T00:53:19.018Z,97859.77
2019-01-17T00:56:06.967Z,97859.93
2019-01-17T00:59:00.796Z,97853.41
2019-01-17T01:01:54.450Z,97854.02
2019-01-17T01:04:48.310Z,97853.39
2019-01-17T01:07:37.087Z,97860.00
2019-01-17T01:10:35.280Z,97856.80
2019-01-17T01:13:27.315Z,97863.12
2019-01-17T01:16:17.301Z,97860.92
2019-01-17T01:19:06.917Z,97858.43
2019-01-17T01:22:03.615Z,97853.45
2019-01-17T01:24:57.930Z,97849.17
2019-01-17T01:27:41.013Z,97846.51
2019-01-17T01:30:46.647Z,97846.39
2019-01-17T01:33:33.372Z,97844.49
2019-01-17T01:36:39.584Z,97850.84
2019-01-17T01:39:26.581Z,97853.20
2019-01-17T01:42:23.359Z,97839.50
2019-01-17T01:45:13.059Z,97834.00
2019-01-17T01:47:52.415Z,97841.48
2019-01-17T01:50:39.405Z,97848.65
2019-01-17T01:53:08.295Z,97854.98
2019-01-17T01:55:37.262Z,97853.20
2019-01-17T01:58:06.460Z,97856.05
2019-01-17T02:00:35.423Z,97853.67
2019-01-17T02:03:04.723Z,97845.96
2019-01-17T02:05:33.662Z,97847.50
2019-01-17T02:08:02.712Z,97857.36
2019-01-17T02:10:31.665Z,97846.45
2019-01-17T02:13:00.772Z,97846.67
2019-01-17T02:15:29.885Z,97837.72
2019-01-17T02:17:58.680Z,97845.06
2019-01-17T02:20:27.632Z,97833.67
2019-01-17T02:22:56.580Z,97833.46
2019-01-17T02:25:25.523Z,97819.22
2019-01-17T02:27:54.700Z,97823.86
2019-01-17T02:30:23.759Z,97817.12
2019-01-17T02:32:52.541Z,97815.08
2019-01-17T02:35:21.493Z,97818.51
2019-01-17T02:37:50.432Z,97823.53
2019-01-17T02:40:19.398Z,97818.24
2019-01-17T02:42:48.179Z,97807.45
2019-01-17T02:45:17.213Z,97806.22
2019-01-17T02:47:46.065Z,97798.25
2019-01-17T02:50:15.023Z,97799.27
2019-01-17T02:52:43.959Z,97803.52
2019-01-17T02:55:13.463Z,97797.83
2019-01-17T02:57:42.395Z,97783.08
2019-01-17T03:00:14.600Z,97787.87
2019-01-17T03:02:43.774Z,97788.98
2019-01-17T03:05:12.717Z,97793.60
2019-01-17T03:07:41.666Z,97791.48
2019-01-17T03:10:13.577Z,97798.97
2019-01-17T03:12:42.544Z,97788.70
2019-01-17T03:15:12.112Z,97790.92
2019-01-17T03:17:41.072Z,97783.41
2019-01-17T03:20:12.151Z,97777.14
2019-01-17T03:22:41.085Z,97781.27
2019-01-17T03:25:10.288Z,97788.27
2019-01-17T03:27:39.325Z,97782.94
2019-01-17T03:30:12.903Z,97782.10
2019-01-17T03:32:41.851Z,97782.41
2019-01-17T03:35:11.607Z,97775.89
2019-01-17T03:37:40.473Z,97777.37
2019-01-17T03:40:11.491Z,97770.28
2019-01-17T03:42:40.531Z,97769.05
2019-01-17T03:45:10.322Z,97767.66
2019-01-17T03:47:39.830Z,97766.21
2019-01-17T03:50:11.071Z,97768.22
2019-01-17T03:52:40.008Z,97766.84
2019-01-17T03:55:12.023Z,97755.28
2019-01-17T03:57:41.068Z,97757.50
2019-01-17T04:00:13.678Z,97756.69
2019-01-17T04:02:42.643Z,97751.23
2019-01-17T04:05:11.729Z,97757.53
2019-01-17T04:07:40.782Z,97753.00
2019-01-17T04:10:12.207Z,97748.48
2019-01-17T04:12:41.075Z,97750.06
2019-01-17T04:15:11.157Z,97744.02
2019-01-17T04:17:40.526Z,97751.26
2019-01-17T04:20:15.806Z,97741.20
2019-01-17T04:22:44.711Z,97740.76
2019-01-17T04:25:14.067Z,97731.73
2019-01-17T04:27:43.055Z,97718.23
2019-01-17T04:30:17.076Z,97715.66
2019-01-17T04:32:46.133Z,97714.48
2019-01-17T04:35:15.073Z,97718.61
2019-01-17T04:37:44.436Z,97713.98
2019-01-17T04:40:13.821Z,97714.48
2019-01-17T04:42:42.799Z,97716.87
2019-01-17T04:45:12.599Z,97714.34
2019-01-17T04:47:41.677Z,97709.92
2019-01-17T04:50:12.741Z,97701.94
2019-01-17T04:52:41.719Z,97699.80
2019-01-17T04:55:12.722Z,97701.19
2019-01-17T04:57:41.884Z,97709.41
2019-01-17T05:00:14.748Z,97706.09
2019-01-17T05:02:43.905Z,97705.72
2019-01-17T05:05:12.972Z,97696.80
2019-01-17T05:07:42.029Z,97689.94
2019-01-17T05:10:12.215Z,97686.98
2019-01-17T05:12:41.842Z,97690.17
2019-01-17T05:15:12.031Z,97692.55
2019-01-17T05:17:41.911Z,97691.11
2019-01-17T05:20:15.498Z,97691.56
2019-01-17T05:22:44.557Z,97688.02
2019-01-17T05:25:13.720Z,97677.74
2019-01-17T05:27:42.667Z,97672.15
2019-01-17T05:30:14.918Z,97676.34
2019-01-17T05:32:43.861Z,97665.92
2019-01-17T05:35:12.906Z,97673.63
2019-01-17T05:37:42.343Z,97663.17
2019-01-17T05:40:14.085Z,97661.01
2019-01-17T05:42:42.975Z,97662.55
2019-01-17T05:45:12.832Z,97649.85
2019-01-17T05:47:42.605Z,97654.11
2019-01-17T05:50:13.037Z,97651.20
2019-01-17T05:52:42.741Z,97652.60
2019-01-17T05:55:11.860Z,97648.88
2019-01-17T05:57:40.805Z,97649.58
2019-01-17T06:00:13.410Z,97644.08
2019-01-17T06:02:43.016Z,97645.05
2019-01-17T06:05:12.264Z,97640.80
2019-01-17T06:07:41.124Z,97642.67
2019-01-17T06:10:11.080Z,97642.62
2019-01-17T06:12:40.030Z,97639.55
2019-01-17T06:15:09.298Z,97630.45
2019-01-17T06:17:38.247Z,97630.95
2019-01-17T06:20:09.147Z,97627.03
2019-01-17T06:22:37.974Z,97628.02
2019-01-17T06:25:07.289Z,97621.56
2019-01-17T06:27:36.159Z,97625.10
2019-01-17T06:30:07.303Z,97627.16
2019-01-17T06:32:36.269Z,97623.27
2019-01-17T06:35:05.924Z,97620.42
2019-01-17T06:37:35.358Z,97616.73
2019-01-17T06:40:04.861Z,97618.15
2019-01-17T06:42:33.728Z,97616.28
2019-01-17T06:45:02.615Z,97615.11
2019-01-17T06:47:31.573Z,97622.71
2019-01-17T06:50:00.441Z,97619.42
2019-01-17T06:52:29.240Z,97615.14
2019-01-17T06:54:58.048Z,97608.70
2019-01-17T06:57:26.923Z,97610.99
2019-01-17T06:59:55.813Z,97617.42
2019-01-17T07:02:24.785Z,97607.34
2019-01-17T07:04:53.658Z,97607.34
2019-01-17T07:07:22.611Z,97605.16
2019-01-17T07:09:51.561Z,97613.23
2019-01-17T07:12:20.399Z,97617.86
2019-01-17T07:14:49.195Z,97617.48
2019-01-17T07:17:18.174Z,97620.25
2019-01-17T07:19:46.969Z,97622.61
2019-01-17T07:22:15.776Z,97615.84
2019-01-17T07:24:44.812Z,97616.68
2019-01-17T07:27:13.693Z,97622.04
2019-01-17T07:29:42.647Z,97616.31
2019-01-17T07:32:11.524Z,97624.55
2019-01-17T07:34:40.395Z,97618.36
2019-01-17T07:37:09.271Z,97618.80
2019-01-17T07:39:38.145Z,97617.75
2019-01-17T07:42:07.187Z,97624.62
2019-01-17T07:44:36.133Z,97620.42
2019-01-17T07:47:05.075Z,97622.06
2019-01-17T07:49:34.032Z,97616.23
2019-01-17T07:52:02.970Z,97622.16
2019-01-17T07:54:31.853Z,97625.28
2019-01-17T07:57:00.714Z,97620.95
2019-01-17T07:59:29.599Z,97615.59
2019-01-17T08:01:58.546Z,97622.22
2019-01-17T08:04:27.427Z,97620.72
2019-01-17T08:06:56.799Z,97620.05
2019-01-17T08:09:26.529Z,97625.28
2019-01-17T08:11:55.316Z,97620.72
2019-01-17T08:14:24.422Z,97621.89
2019-01-17T08:16:53.353Z,97622.96
2019-01-17T08:19:22.327Z,97622.55
2019-01-17T08:21:51.277Z,97627.03
2019-01-17T08:24:20.149Z,97633.33
2019-01-17T08:26:49.040Z,97638.79
2019-01-17T08:29:17.989Z,97632.31
2019-01-17T08:31:46.884Z,97640.43
2019-01-17T08:34:16.695Z,97641.31
2019-01-17T08:36:45.652Z,97650.06
2019-01-17T08:39:14.614Z,97653.78
2019-01-17T08:41:43.471Z,97649.72
2019-01-17T08:44:12.294Z,97651.23
2019-01-17T08:46:41.152Z,97649.55
2019-01-17T08:49:11.315Z,97646.92
2019-01-17T08:51:40.256Z,97658.18
2019-01-17T08:54:09.152Z,97659.59
2019-01-17T08:56:38.026Z,97661.95
2019-01-17T08:59:06.985Z,97655.42
2019-01-17T09:01:35.872Z,97654.00
2019-01-17T09:04:05.014Z,97661.05
2019-01-17T09:06:33.966Z,97664.00
2019-01-17T09:09:03.015Z,97661.27
2019-01-17T09:11:31.972Z,97660.69
2019-01-17T09:14:00.844Z,97656.57
2019-01-17T09:16:29.725Z,97670.02
2019-01-17T09:18:58.590Z,97670.24
2019-01-17T09:21:27.465Z,97664.50
2019-01-17T09:23:56.344Z,97664.78
2019-01-17T09:26:25.221Z,97651.78
2019-01-17T09:28:54.035Z,97653.23
2019-01-17T09:31:22.924Z,97670.33
2019-01-17T09:33:51.715Z,97673.55
2019-01-17T09:36:20.762Z,97659.47
2019-01-17T09:38:49.710Z,97667.17
2019-01-17T09:41:18.684Z,97667.06
2019-01-17T09:43:48.535Z,97667.56
2019-01-17T09:46:17.479Z,97671.98
2019-01-17T09:48:46.391Z,97670.88
2019-01-17T09:51:15.202Z,97674.44
2019-01-17T09:53:44.234Z,97680.28
2019-01-17T09:56:14.975Z,97688.64
2019-01-17T09:58:44.034Z,97677.11
2019-01-17T10:01:13.014Z,97682.99
2019-01-17T10:03:41.889Z,97683.23
2019-01-17T10:06:10.758Z,97694.44
2019-01-17T10:08:39.616Z,97688.31
2019-01-17T10:11:08.565Z,97678.79
2019-01-17T10:13:37.493Z,97681.41
2019-01-17T10:16:58.615Z,97680.70
2019-01-17T10:19:54.331Z,97685.77
2019-01-17T10:22:36.063Z,97679.98
2019-01-17T10:25:41.605Z,97695.16
2019-01-17T10:29:06.564Z,97690.21
2019-01-17T10:32:00.652Z,97696.70
2019-01-17T10:35:02.518Z,97702.09
2019-01-17T10:37:51.825Z,97696.70
2019-01-17T10:41:09.449Z,97701.66
2019-01-17T10:43:51.789Z,97704.69
2019-01-17T10:47:02.744Z,97691.47
2019-01-17T10:50:15.721Z,97692.13
2019-01-17T10:53:19.436Z,97694.34
2019-01-17T10:56:17.092Z,97699.33
2019-01-17T10:59:11.589Z,97692.74
2019-01-17T11:02:05.946Z,97705.12
2019-01-17T11:05:05.607Z,97709.50
2019-01-17T11:08:30.843Z,97711.15
2019-01-17T11:11:30.252Z,97705.59
2019-01-17T11:14:18.328Z,97724.69
2019-01-17T11:17:37.355Z,97723.01
2019-01-17T11:20:31.714Z,97729.94
2019-01-17T11:23:37.878Z,97731.07
2019-01-17T11:26:43.876Z,97728.53
2019-01-17T11:29:26.793Z,97741.02
2019-01-17T11:32:25.128Z,97731.02
2019-01-17T11:35:31.338Z,97731.25
2019-01-17T11:38:26.239Z,97729.00
2019-01-17T11:41:12.832Z,97725.80
2019-01-17T11:44:03.826Z,97726.14
2019-01-17T11:46:50.670Z,97717.70
2019-01-17T11:49:57.197Z,97710.93
2019-01-17T11:53:10.501Z,97711.12
2019-01-17T11:56:05.843Z,97707.66
2019-01-17T11:59:09.249Z,97708.97
2019-01-17T12:01:54.720Z,97704.55
2019-01-17T12:04:31.890Z,97702.70
2019-01-17T12:07:05.083Z,97698.28
2019-01-17T12:09:33.960Z,97702.33
2019-01-17T12:12:03.023Z,97695.63
2019-01-17T12:14:31.972Z,97687.16
2019-01-17T12:17:01.007Z,97692.02
2019-01-17T12:19:29.953Z,97700.80
2019-01-17T12:21:58.914Z,97695.17
2019-01-17T12:24:27.853Z,97686.95
2019-01-17T12:26:56.726Z,97687.11
2019-01-17T12:29:25.705Z,97682.61
2019-01-17T12:31:54.657Z,97670.68
2019-01-17T12:34:23.911Z,97672.22
2019-01-17T12:36:52.774Z,97669.48
2019-01-17T12:39:21.600Z,97672.28
2019-01-17T12:41:50.481Z,97658.98
2019-01-17T12:44:20.577Z,97648.28
2019-01-17T12:46:49.582Z,97654.12
2019-01-17T12:49:18.388Z,97666.27
2019-01-17T12:51:47.180Z,97654.20
2019-01-17T12:54:16.153Z,97653.97
2019-01-17T12:56:45.092Z,97651.69
2019-01-17T12:59:14.018Z,97649.77
2019-01-17T13:01:43.172Z,97649.99
2019-01-17T13:04:12.383Z,97646.02
2019-01-17T13:06:41.496Z,97646.66
2019-01-17T13:09:10.442Z,97649.86
2019-01-17T13:11:39.381Z,97645.73
2019-01-17T13:14:08.326Z,97657.35
2019-01-17T13:16:37.187Z,97652.47
2019-01-17T13:19:06.270Z,97644.59
2019-01-17T13:21:35.211Z,97639.08
2019-01-17T13:24:04.598Z,97627.94
2019-01-17T13:26:33.641Z,97626.09
2019-01-17T13:29:02.533Z,97625.89
2019-01-17T13:31:31.431Z,97627.12
2019-01-17T13:34:00.246Z,97628.73
2019-01-17T13:36:29.100Z,97632.09
2019-01-17T13:38:57.984Z,97640.56
2019-01-17T13:41:26.912Z,97630.00
2019-01-17T13:43:56.338Z,97634.78
2019-01-17T13:46:25.317Z,97636.78
2019-01-17T13:48:54.125Z,97658.92
2019-01-17T13:51:22.980Z,97687.23
2019-01-17T13:53:51.947Z,97676.44
2019-01-17T13:56:20.860Z,97673.58
2019-01-17T13:58:50.285Z,97680.12
2019-01-17T14:01:19.310Z,97683.04
2019-01-17T14:03:48.165Z,97679.05
2019-01-17T14:06:17.184Z,97675.83
2019-01-17T14:08:46.089Z,97675.20
2019-01-17T14:11:15.015Z,97676.75
2019-01-17T14:13:43.824Z,97671.22
2019-01-17T14:16:12.775Z,97665.55
2019-01-17T14:18:41.576Z,97673.63
2019-01-17T14:21:10.544Z,97668.98
2019-01-17T14:23:39.317Z,97669.89
2019-01-17T14:26:08.289Z,97672.50
2019-01-17T14:28:37.248Z,97677.61
2019-01-17T14:31:06.213Z,97686.19
2019-01-17T14:33:35.021Z,97677.88
2019-01-17T14:36:03.997Z,97692.94
2019-01-17T14:38:32.851Z,97689.80
2019-01-17T14:41:01.679Z,97697.10
2019-01-17T14:43:30.557Z,97696.38
2019-01-17T14:45:59.524Z,97698.17
2019-01-17T14:48:28.663Z,97691.81
2019-01-17T14:50:57.510Z,97696.77
2019-01-17T14:53:26.496Z,97701.33
2019-01-17T14:55:55.479Z,97706.52
2019-01-17T14:58:24.481Z,97706.14
2019-01-17T15:00:53.409Z,97701.55
2019-01-17T15:03:22.592Z,97710.16
2019-01-17T15:05:51.724Z,97720.61
2019-01-17T15:08:20.796Z,97715.85
2019-01-17T15:10:49.805Z,97722.02
2019-01-17T15:13:18.895Z,97722.02
2019-01-17T15:15:47.801Z,97732.55
2019-01-17T15:18:16.836Z,97734.92
2019-01-17T15:20:45.676Z,97730.64
2019-01-17T15:23:14.493Z,97728.67
2019-01-17T15:25:43.425Z,97727.97
2019-01-17T15:28:12.223Z,97739.02
2019-01-17T15:30:41.163Z,97748.01
2019-01-17T15:33:09.970Z,97742.95
2019-01-17T15:35:38.847Z,97747.34
2019-01-17T15:38:07.744Z,97744.97
2019-01-17T15:40:36.729Z,97752.22
2019-01-17T15:43:05.590Z,97757.81
2019-01-17T15:45:34.386Z,97770.42
2019-01-17T15:48:03.335Z,97762.70
2019-01-17T15:50:32.280Z,97761.28
2019-01-17T15:53:01.869Z,97772.22
2019-01-17T15:55:31.236Z,97766.27
2019-01-17T15:58:00.133Z,97776.84
2019-01-17T16:00:30.989Z,97773.27
2019-01-17T16:02:59.958Z,97769.23
2019-01-17T16:05:28.923Z,97783.35
2019-01-17T16:07:57.910Z,97783.95
2019-01-17T16:10:26.804Z,97786.19
2019-01-17T16:12:55.710Z,97801.83
2019-01-17T16:15:26.498Z,97807.42
2019-01-17T16:17:55.530Z,97806.13
2019-01-17T16:20:24.466Z,97781.93
2019-01-17T16:22:53.787Z,97816.31
2019-01-17T16:25:22.728Z,97808.73
2019-01-17T16:27:53.159Z,97809.54
2019-01-17T16:30:24.785Z,97814.29
2019-01-17T16:32:53.673Z,97818.20
2019-01-17T16:35:22.563Z,97808.60
2019-01-17T16:37:51.479Z,97801.02
2019-01-17T16:40:20.455Z,97811.80
2019-01-17T16:42:49.401Z,97814.16
2019-01-17T16:45:18.722Z,97815.59
2019-01-17T16:47:47.595Z,97817.27
2019-01-17T16:50:18.581Z,97828.17
2019-01-17T16:52:47.516Z,97842.77
2019-01-17T16:55:16.887Z,97864.09
2019-01-17T16:57:49.260Z,97874.80
2019-01-17T17:00:25.566Z,97885.87
2019-01-17T17:02:54.444Z,97893.08
2019-01-17T17:05:23.487Z,97899.43
2019-01-17T17:07:52.366Z,97909.45
2019-01-17T17:10:21.301Z,97891.03
2019-01-17T17:12:50.271Z,97896.08
2019-01-17T17:15:19.145Z,97896.72
2019-01-17T17:17:48.031Z,97902.88
2019-01-17T17:20:18.614Z,97908.92
2019-01-17T17:22:47.557Z,97910.61
2019-01-17T17:25:16.515Z,97923.75
2019-01-17T17:27:45.460Z,97929.69
2019-01-17T17:30:16.952Z,97937.92
2019-01-17T17:32:45.904Z,97940.47
2019-01-17T17:35:15.068Z,97949.11
2019-01-17T17:37:44.039Z,97965.23
2019-01-17T17:40:31.445Z,97971.27
2019-01-17T17:43:00.327Z,97964.84
2019-01-17T17:45:30.176Z,97969.92
2019-01-17T17:48:00.938Z,97981.14
2019-01-17T17:50:29.880Z,97981.93
2019-01-17T17:52:58.755Z,97983.55
2019-01-17T17:55:27.698Z,97986.56
2019-01-17T17:58:02.151Z,97983.52
2019-01-17T18:00:41.336Z,97994.42
2019-01-17T18:03:10.244Z,97992.28
2019-01-17T18:05:39.136Z,97992.80
2019-01-17T18:08:08.097Z,97998.61
2019-01-17T18:10:36.979Z,98001.56
2019-01-17T18:13:06.966Z,98006.45
2019-01-17T18:15:35.982Z,98012.70
2019-01-17T18:18:05.283Z,98016.19
2019-01-17T18:20:34.537Z,98004.02
2019-01-17T18:23:03.553Z,98021.28
2019-01-17T18:25:32.445Z,98025.02
2019-01-17T18:28:01.315Z,98023.88
2019-01-17T18:30:30.271Z,98027.44
2019-01-17T18:32:59.237Z,98025.05
2019-01-17T18:35:28.110Z,98020.17
2019-01-17T18:37:57.249Z,98028.71
2019-01-17T18:40:26.111Z,98023.69
2019-01-17T18:42:55.004Z,98038.52
2019-01-17T18:45:24.088Z,98034.52
2019-01-17T18:47:53.057Z,98043.26
2019-01-17T18:50:24.378Z,98041.95
2019-01-17T18:52:53.256Z,98054.47
2019-01-17T18:55:22.209Z,98057.09
2019-01-17T18:57:51.079Z,98066.40
2019-01-17T19:00:27.605Z,98062.88
2019-01-17T19:02:57.089Z,98074.78
2019-01-17T19:05:26.376Z,98070.65
2019-01-17T19:07:55.679Z,98077.88
2019-01-17T19:10:24.900Z,98082.32
2019-01-17T19:12:54.053Z,98087.90
2019-01-17T19:15:25.423Z,98091.24
2019-01-17T19:17:54.395Z,98098.34
2019-01-17T19:20:23.444Z,98102.77
2019-01-17T19:22:52.441Z,98111.03
2019-01-17T19:25:21.400Z,98122.91
2019-01-17T19:27:50.392Z,98117.60
2019-01-17T19:30:21.761Z,98121.78
2019-01-17T19:32:50.921Z,98121.78
2019-01-17T19:35:19.969Z,98126.81
2019-01-17T19:37:48.929Z,98128.24
2019-01-17T19:40:19.750Z,98124.06
2019-01-17T19:42:49.003Z,98125.38
2019-01-17T19:45:18.284Z,98139.44
2019-01-17T19:47:47.440Z,98147.89
2019-01-17T19:50:22.205Z,98133.89
2019-01-17T19:52:51.187Z,98145.28
2019-01-17T19:55:20.207Z,98148.34
2019-01-17T19:57:49.181Z,98152.27
2019-01-17T20:00:18.503Z,98158.29
2019-01-17T20:02:47.547Z,98168.33
2019-01-17T20:05:17.589Z,98163.87
2019-01-17T20:07:46.749Z,98162.93
2019-01-17T20:10:18.467Z,98169.05
2019-01-17T20:12:47.338Z,98168.85
2019-01-17T20:15:16.534Z,98162.54
2019-01-17T20:17:45.678Z,98164.86
2019-01-17T20:20:14.860Z,98162.91
2019-01-17T20:22:43.801Z,98165.32
2019-01-17T20:25:12.819Z,98171.44
2019-01-17T20:27:42.141Z,98181.11
2019-01-17T20:30:14.710Z,98181.49
2019-01-17T20:32:43.585Z,98185.73
2019-01-17T20:35:12.683Z,98189.81
2019-01-17T20:37:42.511Z,98187.77
2019-01-17T20:40:13.736Z,98200.03
2019-01-17T20:42:42.586Z,98195.69
2019-01-17T20:45:12.137Z,98192.55
2019-01-17T20:47:41.220Z,98190.23
2019-01-17T20:50:12.700Z,98198.66
2019-01-17T20:52:41.668Z,98199.52
2019-01-17T20:55:11.435Z,98210.34
2019-01-17T20:57:40.876Z,98205.91
2019-01-17T21:00:21.808Z,98220.30
2019-01-17T21:02:50.959Z,98225.56
2019-01-17T21:05:20.147Z,98226.59
2019-01-17T21:07:49.088Z,98241.45
2019-01-17T21:10:18.546Z,98240.34
2019-01-17T21:12:47.574Z,98244.78
2019-01-17T21:15:16.635Z,98244.05
2019-01-17T21:17:45.570Z,98254.34
2019-01-17T21:20:14.640Z,98251.93
2019-01-17T21:22:43.706Z,98274.28
2019-01-17T21:25:14.823Z,98267.98
2019-01-17T21:27:43.854Z,98284.22
2019-01-17T21:30:18.912Z,98283.88
2019-01-17T21:32:47.716Z,98290.84
2019-01-17T21:35:17.009Z,98300.61
2019-01-17T21:37:45.814Z,98316.38
2019-01-17T21:40:16.960Z,98326.52
2019-01-17T21:42:45.850Z,98324.87
2019-01-17T21:45:16.316Z,98325.41
2019-01-17T21:47:45.267Z,98317.21
2019-01-17T21:50:17.290Z,98324.22
2019-01-17T21:52:46.247Z,98328.91
2019-01-17T21:55:15.302Z,98335.56
2019-01-17T21:57:44.561Z,98336.47
2019-01-17T22:02:39.221Z,98346.77
2019-01-17T22:05:08.207Z,98351.33
2019-01-17T22:07:37.154Z,98356.88
2019-01-17T22:10:07.172Z,98350.33
2019-01-17T22:12:36.030Z,98352.01
2019-01-17T22:15:07.486Z,98357.50
2019-01-17T22:17:36.384Z,98361.16
2019-01-17T22:20:06.365Z,98361.28
2019-01-17T22:22:35.256Z,98370.81
2019-01-17T22:25:04.412Z,98373.04
2019-01-17T22:27:33.294Z,98377.29
2019-01-17T22:30:02.275Z,98375.91
2019-01-17T22:32:31.146Z,98374.40
2019-01-17T22:35:00.097Z,98381.41
2019-01-17T22:37:29.216Z,98377.07
2019-01-17T22:39:58.264Z,98379.56
2019-01-17T22:42:27.069Z,98376.45
2019-01-17T22:44:55.880Z,98374.40
2019-01-17T22:47:24.681Z,98379.05
2019-01-17T22:49:53.475Z,98371.73
2019-01-17T22:52:22.465Z,98383.70
2019-01-17T22:54:51.320Z,98381.02
2019-01-17T22:57:20.147Z,98382.17
2019-01-17T22:59:49.017Z,98382.38
2019-01-17T23:02:18.011Z,98390.99
2019-01-17T23:04:46.954Z,98396.49
2019-01-17T23:07:16.248Z,98398.63
2019-01-17T23:09:45.205Z,98400.23
2019-01-17T23:12:14.052Z,98412.62
2019-01-17T23:14:43.001Z,98401.96
2019-01-17T23:17:11.808Z,98411.95
2019-01-17T23:19:40.820Z,98412.79
2019-01-17T23:22:09.938Z,98412.77
2019-01-17T23:24:38.946Z,98409.44
2019-01-17T23:27:07.901Z,98399.45
2019-01-17T23:29:36.716Z,98411.73
2019-01-17T23:32:05.667Z,98405.72
2019-01-17T23:34:34.481Z,98404.55
2019-01-17T23:37:03.458Z,98410.27
2019-01-17T23:39:32.253Z,98415.45
2019-01-17T23:42:01.080Z,98415.37
2019-01-17T23:44:29.870Z,98418.03
2019-01-17T23:46:58.746Z,98417.63
2019-01-17T23:49:27.563Z,98417.55
2019-01-17T23:51:56.441Z,98425.10
2019-01-17T23:54:25.312Z,98419.55
2019-01-17T23:56:54.209Z,98432.03
2019-01-17T23:59:23.030Z,98432.03
